sensor_id;sensor_type;location;lat;lon;timestamp;pressure;altitude;pressure_sealevel;temperature;humidity
13348;BME280;6743;49.934;9.138;2023-03-03T00:01:39;100806.44;;;1.99;100.00
13348;BME280;6743;49.934;9.138;2023-03-03T00:04:06;100814.38;;;1.97;100.00
13348;BME280;6743;49.934;9.138;2023-03-03T00:06:32;100803.16;;;1.95;100.00
13348;BME280;6743;49.934;9.138;2023-03-03T00:08:58;100812.97;;;1.92;100.00
13348;BME280;6743;49.934;9.138;2023-03-03T00:11:24;100812.41;;;1.87;100.00
13348;BME280;6743;49.934;9.138;2023-03-03T00:13:53;100813.25;;;1.87;100.00
13348;BME280;6743;49.934;9.138;2023-03-03T00:16:23;100814.31;;;1.85;100.00
13348;BME280;6743;49.934;9.138;2023-03-03T00:18:50;100825.88;;;1.81;100.00
13348;BME280;6743;49.934;9.138;2023-03-03T00:21:23;100817.38;;;1.77;100.00
13348;BME280;6743;49.934;9.138;2023-03-03T00:23:51;100820.28;;;1.73;100.00
13348;BME280;6743;49.934;9.138;2023-03-03T00:26:20;100820.28;;;1.73;100.00
13348;BME280;6743;49.934;9.138;2023-03-03T00:28:48;100822.06;;;1.72;100.00
13348;BME280;6743;49.934;9.138;2023-03-03T00:31:16;100821.50;;;1.67;100.00
13348;BME280;6743;49.934;9.138;2023-03-03T00:33:46;100834.31;;;1.57;100.00
13348;BME280;6743;49.934;9.138;2023-03-03T00:36:29;100833.72;;;1.52;100.00
13348;BME280;6743;49.934;9.138;2023-03-03T00:39:12;100832.91;;;1.52;100.00
13348;BME280;6743;49.934;9.138;2023-03-03T00:41:42;100832.31;;;1.47;100.00
13348;BME280;6743;49.934;9.138;2023-03-03T00:44:42;100836.00;;;1.44;100.00
13348;BME280;6743;49.934;9.138;2023-03-03T00:47:28;100848.31;;;1.42;100.00
13348;BME280;6743;49.934;9.138;2023-03-03T00:50:12;100842.53;;;1.37;100.00
13348;BME280;6743;49.934;9.138;2023-03-03T00:52:45;100848.69;;;1.36;100.00
13348;BME280;6743;49.934;9.138;2023-03-03T00:55:18;100855.75;;;1.34;100.00
13348;BME280;6743;49.934;9.138;2023-03-03T00:57:45;100850.63;;;1.33;100.00
13348;BME280;6743;49.934;9.138;2023-03-03T01:00:12;100852.59;;;1.29;100.00
13348;BME280;6743;49.934;9.138;2023-03-03T01:02:38;100849.50;;;1.23;100.00
13348;BME280;6743;49.934;9.138;2023-03-03T01:05:05;100860.87;;;1.22;100.00
13348;BME280;6743;49.934;9.138;2023-03-03T01:07:31;100853.59;;;1.27;100.00
13348;BME280;6743;49.934;9.138;2023-03-03T01:09:57;100843.97;;;1.27;100.00
13348;BME280;6743;49.934;9.138;2023-03-03T01:12:23;100829.87;;;1.15;100.00
13348;BME280;6743;49.934;9.138;2023-03-03T01:14:50;100854.44;;;1.27;100.00
13348;BME280;6743;49.934;9.138;2023-03-03T01:17:19;100849.56;;;1.21;100.00
13348;BME280;6743;49.934;9.138;2023-03-03T01:19:45;100851.56;;;1.17;100.00
13348;BME280;6743;49.934;9.138;2023-03-03T01:22:11;100852.62;;;1.13;100.00
13348;BME280;6743;49.934;9.138;2023-03-03T01:24:37;100853.56;;;1.12;100.00
13348;BME280;6743;49.934;9.138;2023-03-03T01:27:03;100853.00;;;1.07;100.00
13348;BME280;6743;49.934;9.138;2023-03-03T01:29:29;100842.00;;;1.02;100.00
13348;BME280;6743;49.934;9.138;2023-03-03T01:31:55;100845.81;;;0.97;100.00
13348;BME280;6743;49.934;9.138;2023-03-03T01:34:21;100841.66;;;0.93;100.00
13348;BME280;6743;49.934;9.138;2023-03-03T01:36:47;100841.88;;;0.90;100.00
13348;BME280;6743;49.934;9.138;2023-03-03T01:39:13;100835.81;;;0.89;100.00
13348;BME280;6743;49.934;9.138;2023-03-03T01:41:39;100837.66;;;0.87;100.00
13348;BME280;6743;49.934;9.138;2023-03-03T01:44:05;100836.87;;;0.85;100.00
13348;BME280;6743;49.934;9.138;2023-03-03T01:46:43;100837.72;;;0.86;100.00
13348;BME280;6743;49.934;9.138;2023-03-03T01:49:14;100836.13;;;0.83;100.00
13348;BME280;6743;49.934;9.138;2023-03-03T01:51:47;100835.31;;;0.83;100.00
13348;BME280;6743;49.934;9.138;2023-03-03T01:54:19;100836.31;;;0.80;100.00
13348;BME280;6743;49.934;9.138;2023-03-03T01:56:47;100843.59;;;0.75;100.00
13348;BME280;6743;49.934;9.138;2023-03-03T01:59:17;100834.06;;;0.74;100.00
13348;BME280;6743;49.934;9.138;2023-03-03T02:01:45;100828.16;;;0.70;100.00
13348;BME280;6743;49.934;9.138;2023-03-03T02:04:12;100837.75;;;0.70;100.00
13348;BME280;6743;49.934;9.138;2023-03-03T02:06:42;100841.78;;;0.61;100.00
13348;BME280;6743;49.934;9.138;2023-03-03T02:09:15;100844.47;;;0.60;100.00
13348;BME280;6743;49.934;9.138;2023-03-03T02:11:44;100831.06;;;0.66;100.00
13348;BME280;6743;49.934;9.138;2023-03-03T02:14:12;100832.66;;;0.68;100.00
13348;BME280;6743;49.934;9.138;2023-03-03T02:16:38;100825.00;;;0.65;100.00
13348;BME280;6743;49.934;9.138;2023-03-03T02:19:14;100817.44;;;0.61;100.00
13348;BME280;6743;49.934;9.138;2023-03-03T02:21:43;100820.28;;;0.56;100.00
13348;BME280;6743;49.934;9.138;2023-03-03T02:24:15;100821.31;;;0.54;100.00
13348;BME280;6743;49.934;9.138;2023-03-03T02:26:44;100823.16;;;0.52;100.00
13348;BME280;6743;49.934;9.138;2023-03-03T02:29:10;100834.72;;;0.48;100.00
13348;BME280;6743;49.934;9.138;2023-03-03T02:31:36;100834.13;;;0.43;100.00
13348;BME280;6743;49.934;9.138;2023-03-03T02:34:03;100828.91;;;0.43;100.00
13348;BME280;6743;49.934;9.138;2023-03-03T02:36:31;100828.91;;;0.43;100.00
13348;BME280;6743;49.934;9.138;2023-03-03T02:39:02;100830.66;;;0.42;100.00
13348;BME280;6743;49.934;9.138;2023-03-03T02:41:33;100822.94;;;0.41;100.00
13348;BME280;6743;49.934;9.138;2023-03-03T02:44:03;100831.69;;;0.39;100.00
13348;BME280;6743;49.934;9.138;2023-03-03T02:46:32;100836.16;;;0.37;100.00
13348;BME280;6743;49.934;9.138;2023-03-03T02:48:59;100836.34;;;0.34;100.00
13348;BME280;6743;49.934;9.138;2023-03-03T02:51:25;100838.19;;;0.32;100.00
13348;BME280;6743;49.934;9.138;2023-03-03T02:53:51;100837.41;;;0.30;100.00
13348;BME280;6743;49.934;9.138;2023-03-03T02:56:17;100841.78;;;0.30;100.00
13348;BME280;6743;49.934;9.138;2023-03-03T02:58:43;100841.13;;;0.26;100.00
13348;BME280;6743;49.934;9.138;2023-03-03T03:01:10;100838.69;;;0.23;100.00
13348;BME280;6743;49.934;9.138;2023-03-03T03:03:36;100835.31;;;0.21;100.00
13348;BME280;6743;49.934;9.138;2023-03-03T03:06:03;100845.00;;;0.19;100.00
13348;BME280;6743;49.934;9.138;2023-03-03T03:08:29;100846.94;;;0.16;100.00
13348;BME280;6743;49.934;9.138;2023-03-03T03:10:55;100846.28;;;0.12;100.00
13348;BME280;6743;49.934;9.138;2023-03-03T03:13:22;100844.59;;;0.11;100.00
13348;BME280;6743;49.934;9.138;2023-03-03T03:15:48;100847.19;;;0.11;100.00
13348;BME280;6743;49.934;9.138;2023-03-03T03:18:15;100846.44;;;0.09;100.00
13348;BME280;6743;49.934;9.138;2023-03-03T03:20:41;100844.84;;;0.07;100.00
13348;BME280;6743;49.934;9.138;2023-03-03T03:23:08;100850.22;;;0.04;100.00
13348;BME280;6743;49.934;9.138;2023-03-03T03:25:34;100851.13;;;0.03;100.00
13348;BME280;6743;49.934;9.138;2023-03-03T03:28:06;100853.81;;;0.01;100.00
13348;BME280;6743;49.934;9.138;2023-03-03T03:30:34;100847.88;;;-0.01;100.00
13348;BME280;6743;49.934;9.138;2023-03-03T03:33:00;100844.50;;;-0.03;100.00
13348;BME280;6743;49.934;9.138;2023-03-03T03:35:26;100846.41;;;-0.07;100.00
13348;BME280;6743;49.934;9.138;2023-03-03T03:37:52;100846.41;;;-0.07;100.00
13348;BME280;6743;49.934;9.138;2023-03-03T03:40:18;100849.97;;;-0.08;100.00
13348;BME280;6743;49.934;9.138;2023-03-03T03:42:44;100856.09;;;-0.09;100.00
13348;BME280;6743;49.934;9.138;2023-03-03T03:45:15;100856.25;;;-0.12;100.00
13348;BME280;6743;49.934;9.138;2023-03-03T03:47:42;100851.88;;;-0.11;100.00
13348;BME280;6743;49.934;9.138;2023-03-03T03:50:09;100854.50;;;-0.11;100.00
13348;BME280;6743;49.934;9.138;2023-03-03T03:52:40;100852.97;;;-0.15;100.00
13348;BME280;6743;49.934;9.138;2023-03-03T03:55:08;100853.97;;;-0.18;100.00
13348;BME280;6743;49.934;9.138;2023-03-03T03:57:34;100850.72;;;-0.21;100.00
13348;BME280;6743;49.934;9.138;2023-03-03T04:00:00;100846.63;;;-0.27;100.00
13348;BME280;6743;49.934;9.138;2023-03-03T04:02:26;100853.53;;;-0.26;100.00
13348;BME280;6743;49.934;9.138;2023-03-03T04:04:53;100852.62;;;-0.25;100.00
13348;BME280;6743;49.934;9.138;2023-03-03T04:07:19;100843.19;;;-0.27;100.00
13348;BME280;6743;49.934;9.138;2023-03-03T04:09:45;100856.31;;;-0.29;100.00
13348;BME280;6743;49.934;9.138;2023-03-03T04:12:11;100856.47;;;-0.32;100.00
13348;BME280;6743;49.934;9.138;2023-03-03T04:14:37;100850.50;;;-0.34;100.00
13348;BME280;6743;49.934;9.138;2023-03-03T04:17:03;100858.50;;;-0.37;100.00
13348;BME280;6743;49.934;9.138;2023-03-03T04:19:29;100865.47;;;-0.37;100.00
13348;BME280;6743;49.934;9.138;2023-03-03T04:21:55;100856.28;;;-0.45;100.00
13348;BME280;6743;49.934;9.138;2023-03-03T04:24:21;100870.81;;;-0.41;100.00
13348;BME280;6743;49.934;9.138;2023-03-03T04:26:48;100861.34;;;-0.42;100.00
13348;BME280;6743;49.934;9.138;2023-03-03T04:29:14;100863.19;;;-0.44;100.00
13348;BME280;6743;49.934;9.138;2023-03-03T04:31:40;100866.78;;;-0.46;100.00
13348;BME280;6743;49.934;9.138;2023-03-03T04:34:06;100871.84;;;-0.43;100.00
13348;BME280;6743;49.934;9.138;2023-03-03T04:36:32;100869.31;;;-0.45;100.00
13348;BME280;6743;49.934;9.138;2023-03-03T04:38:58;100875.44;;;-0.46;100.00
13348;BME280;6743;49.934;9.138;2023-03-03T04:41:24;100873.81;;;-0.48;100.00
13348;BME280;6743;49.934;9.138;2023-03-03T04:43:51;100869.47;;;-0.48;100.00
13348;BME280;6743;49.934;9.138;2023-03-03T04:46:17;100883.97;;;-0.42;100.00
13348;BME280;6743;49.934;9.138;2023-03-03T04:48:43;100884.94;;;-0.45;100.00
13348;BME280;6743;49.934;9.138;2023-03-03T04:51:09;100884.19;;;-0.47;100.00
13348;BME280;6743;49.934;9.138;2023-03-03T04:53:35;100880.72;;;-0.47;100.00
13348;BME280;6743;49.934;9.138;2023-03-03T04:56:02;100886.97;;;-0.50;100.00
13348;BME280;6743;49.934;9.138;2023-03-03T04:58:29;100877.59;;;-0.54;100.00
13348;BME280;6743;49.934;9.138;2023-03-03T05:00:56;100852.31;;;-0.69;100.00
13348;BME280;6743;49.934;9.138;2023-03-03T05:03:22;100885.66;;;-0.58;100.00
13348;BME280;6743;49.934;9.138;2023-03-03T05:05:49;100883.31;;;-0.63;100.00
13348;BME280;6743;49.934;9.138;2023-03-03T05:08:15;100881.63;;;-0.64;100.00
13348;BME280;6743;49.934;9.138;2023-03-03T05:10:41;100880.91;;;-0.67;100.00
13348;BME280;6743;49.934;9.138;2023-03-03T05:13:07;100878.56;;;-0.72;100.00
13348;BME280;6743;49.934;9.138;2023-03-03T05:15:33;100882.91;;;-0.72;100.00
13348;BME280;6743;49.934;9.138;2023-03-03T05:18:00;100883.00;;;-0.74;100.00
13348;BME280;6743;49.934;9.138;2023-03-03T05:20:26;100879.72;;;-0.77;100.00
13348;BME280;6743;49.934;9.138;2023-03-03T05:22:53;100890.97;;;-0.77;100.00
13348;BME280;6743;49.934;9.138;2023-03-03T05:25:19;100888.44;;;-0.78;100.00
13348;BME280;6743;49.934;9.138;2023-03-03T05:27:45;100898.16;;;-0.82;100.00
13348;BME280;6743;49.934;9.138;2023-03-03T05:30:12;100908.56;;;-0.82;100.00
13348;BME280;6743;49.934;9.138;2023-03-03T05:32:38;100900.69;;;-0.81;100.00
13348;BME280;6743;49.934;9.138;2023-03-03T05:35:05;100905.97;;;-0.82;100.00
13348;BME280;6743;49.934;9.138;2023-03-03T05:37:32;100906.59;;;-0.77;100.00
13348;BME280;6743;49.934;9.138;2023-03-03T05:39:58;100908.28;;;-0.76;100.00
13348;BME280;6743;49.934;9.138;2023-03-03T05:42:23;100906.59;;;-0.77;100.00
13348;BME280;6743;49.934;9.138;2023-03-03T05:44:50;100908.44;;;-0.79;100.00
13348;BME280;6743;49.934;9.138;2023-03-03T05:47:16;100905.91;;;-0.81;100.00
13348;BME280;6743;49.934;9.138;2023-03-03T05:49:41;100916.31;;;-0.81;100.00
13348;BME280;6743;49.934;9.138;2023-03-03T05:52:08;100917.09;;;-0.78;100.00
13348;BME280;6743;49.934;9.138;2023-03-03T05:54:34;100922.31;;;-0.78;100.00
13348;BME280;6743;49.934;9.138;2023-03-03T05:57:00;100912.88;;;-0.81;100.00
13348;BME280;6743;49.934;9.138;2023-03-03T05:59:26;100917.41;;;-0.85;100.00
13348;BME280;6743;49.934;9.138;2023-03-03T06:01:52;100915.72;;;-0.86;100.00
13348;BME280;6743;49.934;9.138;2023-03-03T06:04:18;100909.72;;;-0.88;100.00
13348;BME280;6743;49.934;9.138;2023-03-03T06:06:45;100928.03;;;-0.89;100.00
13348;BME280;6743;49.934;9.138;2023-03-03T06:09:11;100934.25;;;-0.92;100.00
13348;BME280;6743;49.934;9.138;2023-03-03T06:11:37;100939.22;;;-0.87;100.00
13348;BME280;6743;49.934;9.138;2023-03-03T06:14:04;100933.19;;;-0.88;100.00
13348;BME280;6743;49.934;9.138;2023-03-03T06:16:30;100937.53;;;-0.88;100.00
13348;BME280;6743;49.934;9.138;2023-03-03T06:18:56;100927.97;;;-0.88;100.00
13348;BME280;6743;49.934;9.138;2023-03-03T06:21:22;100935.78;;;-0.88;100.00
13348;BME280;6743;49.934;9.138;2023-03-03T06:23:48;100933.34;;;-0.91;100.00
13348;BME280;6743;49.934;9.138;2023-03-03T06:26:15;100949.81;;;-0.90;100.00
13348;BME280;6743;49.934;9.138;2023-03-03T06:28:40;100932.88;;;-0.99;100.00
13348;BME280;6743;49.934;9.138;2023-03-03T06:31:06;100944.81;;;-0.95;100.00
13348;BME280;6743;49.934;9.138;2023-03-03T06:33:32;100950.09;;;-0.96;100.00
13348;BME280;6743;49.934;9.138;2023-03-03T06:35:58;100961.53;;;-0.99;100.00
13348;BME280;6743;49.934;9.138;2023-03-03T06:38:24;100949.41;;;-1.00;100.00
13348;BME280;6743;49.934;9.138;2023-03-03T06:40:50;100962.19;;;-0.95;100.00
13348;BME280;6743;49.934;9.138;2023-03-03T06:43:17;100961.28;;;-0.94;100.00
13348;BME280;6743;49.934;9.138;2023-03-03T06:45:44;100961.22;;;-0.93;100.00
13348;BME280;6743;49.934;9.138;2023-03-03T06:48:10;100962.91;;;-0.92;100.00
13348;BME280;6743;49.934;9.138;2023-03-03T06:50:36;100962.97;;;-0.93;100.00
13348;BME280;6743;49.934;9.138;2023-03-03T06:53:10;100970.06;;;-0.97;100.00
13348;BME280;6743;49.934;9.138;2023-03-03T06:55:37;100980.97;;;-0.89;100.00
13348;BME280;6743;49.934;9.138;2023-03-03T06:58:07;100980.91;;;-0.87;100.00
13348;BME280;6743;49.934;9.138;2023-03-03T07:00:37;100987.81;;;-0.86;100.00
13348;BME280;6743;49.934;9.138;2023-03-03T07:03:07;100994.72;;;-0.85;100.00
13348;BME280;6743;49.934;9.138;2023-03-03T07:05:37;100991.19;;;-0.84;100.00
13348;BME280;6743;49.934;9.138;2023-03-03T07:08:05;100995.38;;;-0.82;100.00
13348;BME280;6743;49.934;9.138;2023-03-03T07:10:31;100997.84;;;-0.78;100.00
13348;BME280;6743;49.934;9.138;2023-03-03T07:13:07;101012.22;;;-0.70;100.00
13348;BME280;6743;49.934;9.138;2023-03-03T07:15:39;101010.50;;;-0.71;100.00
13348;BME280;6743;49.934;9.138;2023-03-03T07:18:19;101009.59;;;-0.70;100.00
13348;BME280;6743;49.934;9.138;2023-03-03T07:20:46;101008.75;;;-0.70;100.00
13348;BME280;6743;49.934;9.138;2023-03-03T07:23:19;101012.03;;;-0.67;100.00
13348;BME280;6743;49.934;9.138;2023-03-03T07:25:46;101010.03;;;-0.62;100.00
13348;BME280;6743;49.934;9.138;2023-03-03T07:28:19;101012.59;;;-0.60;100.00
13348;BME280;6743;49.934;9.138;2023-03-03T07:30:47;101016.81;;;-0.58;100.00
13348;BME280;6743;49.934;9.138;2023-03-03T07:33:19;101020.09;;;-0.54;100.00
13348;BME280;6743;49.934;9.138;2023-03-03T07:35:48;101029.41;;;-0.49;100.00
13348;BME280;6743;49.934;9.138;2023-03-03T07:38:23;101030.06;;;-0.45;100.00
13348;BME280;6743;49.934;9.138;2023-03-03T07:40:51;101031.69;;;-0.43;100.00
13348;BME280;6743;49.934;9.138;2023-03-03T07:43:29;101037.59;;;-0.39;100.00
13348;BME280;6743;49.934;9.138;2023-03-03T07:46:01;101039.12;;;-0.35;100.00
13348;BME280;6743;49.934;9.138;2023-03-03T07:48:30;101032.78;;;-0.29;100.00
13348;BME280;6743;49.934;9.138;2023-03-03T07:51:04;101040.53;;;-0.28;100.00
13348;BME280;6743;49.934;9.138;2023-03-03T07:53:33;101034.22;;;-0.24;100.00
13348;BME280;6743;49.934;9.138;2023-03-03T07:56:01;101032.06;;;-0.16;100.00
13348;BME280;6743;49.934;9.138;2023-03-03T07:58:36;101031.75;;;-0.10;100.00
13348;BME280;6743;49.934;9.138;2023-03-03T08:01:23;101047.16;;;-0.05;100.00
13348;BME280;6743;49.934;9.138;2023-03-03T08:03:52;101046.19;;;-0.03;100.00
13348;BME280;6743;49.934;9.138;2023-03-03T08:06:44;101059.81;;;0.03;100.00
13348;BME280;6743;49.934;9.138;2023-03-03T08:09:34;101059.69;;;0.06;100.00
13348;BME280;6743;49.934;9.138;2023-03-03T08:12:15;101064.50;;;0.13;100.00
13348;BME280;6743;49.934;9.138;2023-03-03T08:14:43;101065.19;;;0.17;100.00
13348;BME280;6743;49.934;9.138;2023-03-03T08:17:13;101073.25;;;0.12;100.00
13348;BME280;6743;49.934;9.138;2023-03-03T08:19:42;101069.53;;;0.16;100.00
13348;BME280;6743;49.934;9.138;2023-03-03T08:22:11;101056.34;;;0.19;100.00
13348;BME280;6743;49.934;9.138;2023-03-03T08:24:39;101058.78;;;0.22;100.00
13348;BME280;6743;49.934;9.138;2023-03-03T08:27:05;101056.03;;;0.25;100.00
13348;BME280;6743;49.934;9.138;2023-03-03T08:29:32;101061.69;;;0.33;100.00
13348;BME280;6743;49.934;9.138;2023-03-03T08:31:58;101065.75;;;0.39;100.00
13348;BME280;6743;49.934;9.138;2023-03-03T08:34:25;101041.94;;;0.45;100.00
13348;BME280;6743;49.934;9.138;2023-03-03T08:36:51;101049.44;;;0.51;100.00
13348;BME280;6743;49.934;9.138;2023-03-03T08:39:17;101057.84;;;0.56;100.00
13348;BME280;6743;49.934;9.138;2023-03-03T08:41:43;101046.34;;;0.60;100.00
13348;BME280;6743;49.934;9.138;2023-03-03T08:44:10;101051.91;;;0.70;100.00
13348;BME280;6743;49.934;9.138;2023-03-03T08:46:36;101045.69;;;0.72;100.00
13348;BME280;6743;49.934;9.138;2023-03-03T08:49:03;101050.50;;;0.80;100.00
13348;BME280;6743;49.934;9.138;2023-03-03T08:51:29;101049.88;;;0.91;100.00
13348;BME280;6743;49.934;9.138;2023-03-03T08:53:58;101053.00;;;0.97;100.00
13348;BME280;6743;49.934;9.138;2023-03-03T08:56:24;101057.94;;;1.03;100.00
13348;BME280;6743;49.934;9.138;2023-03-03T08:58:50;101062.81;;;1.09;100.00
13348;BME280;6743;49.934;9.138;2023-03-03T09:01:16;101064.22;;;1.15;100.00
13348;BME280;6743;49.934;9.138;2023-03-03T09:03:42;101056.97;;;1.20;100.00
13348;BME280;6743;49.934;9.138;2023-03-03T09:06:08;101061.84;;;1.26;100.00
13348;BME280;6743;49.934;9.138;2023-03-03T09:08:36;101057.87;;;1.35;100.00
13348;BME280;6743;49.934;9.138;2023-03-03T09:11:02;101060.06;;;1.42;100.00
13348;BME280;6743;49.934;9.138;2023-03-03T09:13:29;101057.47;;;1.42;100.00
13348;BME280;6743;49.934;9.138;2023-03-03T09:15:57;101059.38;;;1.54;100.00
13348;BME280;6743;49.934;9.138;2023-03-03T09:18:30;101054.63;;;1.61;100.00
13348;BME280;6743;49.934;9.138;2023-03-03T09:20:56;101061.94;;;1.70;100.00
13348;BME280;6743;49.934;9.138;2023-03-03T09:23:35;101052.72;;;1.79;100.00
13348;BME280;6743;49.934;9.138;2023-03-03T09:26:27;101057.69;;;1.83;100.00
13348;BME280;6743;49.934;9.138;2023-03-03T09:28:59;101057.25;;;1.91;100.00
13348;BME280;6743;49.934;9.138;2023-03-03T09:31:39;101064.44;;;2.02;100.00
13348;BME280;6743;49.934;9.138;2023-03-03T09:34:15;101054.22;;;2.13;100.00
13348;BME280;6743;49.934;9.138;2023-03-03T09:36:44;101057.22;;;2.21;100.00
13348;BME280;6743;49.934;9.138;2023-03-03T09:39:16;101053.94;;;2.31;100.00
13348;BME280;6743;49.934;9.138;2023-03-03T09:42:01;101056.19;;;2.37;100.00
13348;BME280;6743;49.934;9.138;2023-03-03T09:47:43;101056.09;;;2.53;100.00
13348;BME280;6743;49.934;9.138;2023-03-03T09:50:31;101050.47;;;2.59;100.00
13348;BME280;6743;49.934;9.138;2023-03-03T09:53:09;101060.19;;;2.71;100.00
13348;BME280;6743;49.934;9.138;2023-03-03T09:55:44;101060.47;;;2.81;100.00
13348;BME280;6743;49.934;9.138;2023-03-03T09:58:22;101060.09;;;2.87;100.00
13348;BME280;6743;49.934;9.138;2023-03-03T10:00:58;101049.50;;;2.89;100.00
13348;BME280;6743;49.934;9.138;2023-03-03T10:03:51;101061.66;;;3.04;100.00
13348;BME280;6743;49.934;9.138;2023-03-03T10:06:24;101069.84;;;3.12;100.00
13348;BME280;6743;49.934;9.138;2023-03-03T10:09:01;101070.22;;;3.20;100.00
13348;BME280;6743;49.934;9.138;2023-03-03T10:11:34;101069.94;;;3.25;100.00
13348;BME280;6743;49.934;9.138;2023-03-03T10:14:25;101072.03;;;3.32;100.00
13348;BME280;6743;49.934;9.138;2023-03-03T10:17:13;101066.59;;;3.35;100.00
13348;BME280;6743;49.934;9.138;2023-03-03T10:19:51;101076.88;;;3.52;100.00
13348;BME280;6743;49.934;9.138;2023-03-03T10:22:23;101069.62;;;3.56;100.00
13348;BME280;6743;49.934;9.138;2023-03-03T10:25:07;101075.41;;;3.61;100.00
13348;BME280;6743;49.934;9.138;2023-03-03T10:27:50;101077.63;;;3.67;100.00
13348;BME280;6743;49.934;9.138;2023-03-03T10:30:27;101079.75;;;3.75;100.00
13348;BME280;6743;49.934;9.138;2023-03-03T10:33:00;101074.66;;;3.86;100.00
13348;BME280;6743;49.934;9.138;2023-03-03T10:35:41;101073.28;;;3.93;100.00
13348;BME280;6743;49.934;9.138;2023-03-03T10:41:33;101067.22;;;4.05;100.00
13348;BME280;6743;49.934;9.138;2023-03-03T10:44:16;101075.41;;;4.13;100.00
13348;BME280;6743;49.934;9.138;2023-03-03T10:50:06;101088.56;;;4.39;100.00
13348;BME280;6743;49.934;9.138;2023-03-03T10:52:42;101086.44;;;4.44;100.00
13348;BME280;6743;49.934;9.138;2023-03-03T10:55:35;101078.97;;;4.50;100.00
13348;BME280;6743;49.934;9.138;2023-03-03T10:58:27;101082.78;;;4.59;100.00
13348;BME280;6743;49.934;9.138;2023-03-03T11:01:00;101068.34;;;4.64;100.00
13348;BME280;6743;49.934;9.138;2023-03-03T11:03:52;101063.34;;;4.61;100.00
13348;BME280;6743;49.934;9.138;2023-03-03T11:06:25;101075.06;;;4.81;100.00
13348;BME280;6743;49.934;9.138;2023-03-03T11:08:55;101084.09;;;4.90;100.00
13348;BME280;6743;49.934;9.138;2023-03-03T11:11:33;101075.03;;;4.94;100.00
13348;BME280;6743;49.934;9.138;2023-03-03T11:14:05;101078.19;;;4.99;100.00
13348;BME280;6743;49.934;9.138;2023-03-03T11:16:42;101078.81;;;5.02;100.00
13348;BME280;6743;49.934;9.138;2023-03-03T11:22:11;101059.31;;;5.05;100.00
13348;BME280;6743;49.934;9.138;2023-03-03T11:24:45;101046.31;;;5.03;100.00
13348;BME280;6743;49.934;9.138;2023-03-03T11:27:26;101061.59;;;5.22;100.00
13348;BME280;6743;49.934;9.138;2023-03-03T11:32:52;101046.66;;;5.23;100.00
13348;BME280;6743;49.934;9.138;2023-03-03T11:35:26;101054.37;;;5.37;100.00
13348;BME280;6743;49.934;9.138;2023-03-03T11:38:07;101054.44;;;5.48;100.00
13348;BME280;6743;49.934;9.138;2023-03-03T11:40:42;101042.50;;;5.55;100.00
13348;BME280;6743;49.934;9.138;2023-03-03T11:43:14;101032.72;;;5.57;100.00
13348;BME280;6743;49.934;9.138;2023-03-03T11:45:44;101044.09;;;5.69;100.00
13348;BME280;6743;49.934;9.138;2023-03-03T11:48:17;101039.75;;;5.80;100.00
13348;BME280;6743;49.934;9.138;2023-03-03T11:50:52;101032.00;;;5.90;100.00
13348;BME280;6743;49.934;9.138;2023-03-03T11:53:31;101020.41;;;5.92;100.00
13348;BME280;6743;49.934;9.138;2023-03-03T11:56:13;101017.53;;;5.96;100.00
13348;BME280;6743;49.934;9.138;2023-03-03T11:58:45;101016.34;;;6.00;100.00
13348;BME280;6743;49.934;9.138;2023-03-03T12:01:20;101012.41;;;6.05;100.00
13348;BME280;6743;49.934;9.138;2023-03-03T12:03:51;101016.87;;;6.27;100.00
13348;BME280;6743;49.934;9.138;2023-03-03T12:06:25;101007.88;;;6.29;100.00
13348;BME280;6743;49.934;9.138;2023-03-03T12:09:22;101008.59;;;6.31;100.00
13348;BME280;6743;49.934;9.138;2023-03-03T12:11:53;101004.66;;;6.37;100.00
13348;BME280;6743;49.934;9.138;2023-03-03T12:14:31;100999.25;;;6.39;100.00
13348;BME280;6743;49.934;9.138;2023-03-03T12:17:00;100998.41;;;6.38;100.00
13348;BME280;6743;49.934;9.138;2023-03-03T12:19:33;100988.34;;;6.43;100.00
13348;BME280;6743;49.934;9.138;2023-03-03T12:22:10;100988.09;;;6.57;100.00
13348;BME280;6743;49.934;9.138;2023-03-03T12:25:00;100982.37;;;6.63;100.00
13348;BME280;6743;49.934;9.138;2023-03-03T12:27:34;100985.81;;;6.64;100.00
13348;BME280;6743;49.934;9.138;2023-03-03T12:30:16;100978.41;;;6.69;100.00
13348;BME280;6743;49.934;9.138;2023-03-03T12:33:01;100974.53;;;6.73;100.00
13348;BME280;6743;49.934;9.138;2023-03-03T12:35:35;100976.94;;;6.76;100.00
13348;BME280;6743;49.934;9.138;2023-03-03T12:38:10;100971.28;;;6.81;100.00
13348;BME280;6743;49.934;9.138;2023-03-03T12:40:44;100978.72;;;6.87;100.00
13348;BME280;6743;49.934;9.138;2023-03-03T12:43:18;100979.06;;;6.93;100.00
13348;BME280;6743;49.934;9.138;2023-03-03T12:45:56;100969.34;;;6.94;100.00
13348;BME280;6743;49.934;9.138;2023-03-03T12:48:33;100969.09;;;6.97;100.00
13348;BME280;6743;49.934;9.138;2023-03-03T12:51:05;100956.63;;;6.99;100.00
13348;BME280;6743;49.934;9.138;2023-03-03T12:53:45;100962.09;;;7.07;100.00
13348;BME280;6743;49.934;9.138;2023-03-03T12:56:18;100964.97;;;7.15;100.00
13348;BME280;6743;49.934;9.138;2023-03-03T12:58:55;100964.72;;;7.18;100.00
13348;BME280;6743;49.934;9.138;2023-03-03T13:01:35;100957.66;;;7.19;100.00
13348;BME280;6743;49.934;9.138;2023-03-03T13:04:07;100954.84;;;7.20;100.00
13348;BME280;6743;49.934;9.138;2023-03-03T13:06:40;100952.50;;;7.17;100.00
13348;BME280;6743;49.934;9.138;2023-03-03T13:09:18;100954.63;;;7.23;100.00
13348;BME280;6743;49.934;9.138;2023-03-03T13:11:59;100962.87;;;7.30;100.00
13348;BME280;6743;49.934;9.138;2023-03-03T13:14:35;100960.34;;;7.28;100.00
13348;BME280;6743;49.934;9.138;2023-03-03T13:17:16;100951.91;;;7.34;100.00
13348;BME280;6743;49.934;9.138;2023-03-03T13:19:47;100937.72;;;7.46;100.00
13348;BME280;6743;49.934;9.138;2023-03-03T13:22:23;100954.22;;;7.60;100.00
13348;BME280;6743;49.934;9.138;2023-03-03T13:24:57;100939.91;;;7.62;100.00
13348;BME280;6743;49.934;9.138;2023-03-03T13:27:31;100941.31;;;7.66;100.00
13348;BME280;6743;49.934;9.138;2023-03-03T13:30:07;100933.78;;;7.62;100.00
13348;BME280;6743;49.934;9.138;2023-03-03T13:32:43;100936.69;;;7.59;100.00